Time;durP1;ratioP1;P1;durP2;ratioP2;P2;SDS_P1;SDS_P2;PMS_P1;PMS_P2;Temp;Humidity;BMP_temperature;BMP_pressure;BME280_temperature;BME280_humidity;BME280_pressure;Samples;Min_cycle;Max_cycle;Signal;HPM_P1;HPM_P2
2021/07/02 00:00:46;;;;;;;26.10;10.30;;;;;9.10;101538.00;;;;5088879;28;20101;-76
2021/07/02 00:03:12;;;;;;;24.52;11.63;;;;;9.20;101554.00;;;;5103159;28;20054;-76
2021/07/02 00:05:39;;;;;;;19.10;11.43;;;;;9.10;101527.00;;;;5108975;28;20031;-76
2021/07/02 00:08:06;;;;;;;17.08;9.45;;;;;9.20;101556.00;;;;5109285;28;20024;-76
2021/07/02 00:10:33;;;;;;;27.83;13.82;;;;;9.00;101550.00;;;;5109021;28;20554;-77
2021/07/02 00:13:00;;;;;;;22.92;13.98;;;;;8.90;101541.00;;;;5109331;28;20533;-76
2021/07/02 00:15:26;;;;;;;17.17;11.55;;;;;8.90;101535.00;;;;5108991;28;20568;-76
2021/07/02 00:17:53;;;;;;;24.35;14.18;;;;;9.00;101548.00;;;;5108946;28;20563;-76
2021/07/02 00:20:20;;;;;;;22.02;12.70;;;;;8.90;101569.00;;;;5109176;28;20482;-76
2021/07/02 00:22:46;;;;;;;20.55;12.30;;;;;8.90;101539.00;;;;5109449;28;20028;-76
2021/07/02 00:25:13;;;;;;;19.48;12.68;;;;;8.90;101551.00;;;;5109047;28;20023;-76
2021/07/02 00:27:40;;;;;;;34.90;15.27;;;;;8.90;101545.00;;;;5108806;28;20027;-76
2021/07/02 00:30:07;;;;;;;27.85;14.10;;;;;9.00;101529.00;;;;5105721;28;20440;-76
2021/07/02 00:32:34;;;;;;;33.03;17.20;;;;;8.90;101568.00;;;;5097666;28;20082;-76
2021/07/02 00:35:00;;;;;;;26.33;15.57;;;;;8.80;101548.00;;;;5100717;28;20035;-76
2021/07/02 00:37:27;;;;;;;34.35;17.40;;;;;8.90;101538.00;;;;5109004;28;20080;-76
2021/07/02 00:39:53;;;;;;;32.92;18.13;;;;;8.90;101534.00;;;;5108539;28;20077;-76
2021/07/02 00:42:20;;;;;;;41.17;21.80;;;;;8.80;101548.00;;;;5108527;28;20020;-76
2021/07/02 00:44:48;;;;;;;36.63;20.05;;;;;8.80;101559.00;;;;5108429;28;20031;-76
2021/07/02 00:47:17;;;;;;;42.70;20.25;;;;;8.80;101573.00;;;;5107987;28;20550;-76
2021/07/02 00:49:43;;;;;;;46.45;24.35;;;;;8.80;101545.00;;;;5109053;28;20027;-76
2021/07/02 00:52:11;;;;;;;33.22;21.10;;;;;8.80;101556.00;;;;5106560;28;20031;-76
2021/07/02 00:54:39;;;;;;;36.38;17.02;;;;;8.70;101548.00;;;;5107616;28;20023;-77
2021/07/02 00:57:10;;;;;;;37.05;17.13;;;;;8.70;101535.00;;;;5108179;28;20032;-76
2021/07/02 00:59:38;;;;;;;26.63;11.32;;;;;8.70;101535.00;;;;5106985;28;20040;-77
2021/07/02 01:02:05;;;;;;;37.17;18.58;;;;;8.60;101538.00;;;;5108333;28;20036;-76
2021/07/02 01:04:31;;;;;;;38.15;22.65;;;;;8.40;101534.00;;;;5107315;28;20576;-76
2021/07/02 01:06:59;;;;;;;46.00;23.58;;;;;8.50;101534.00;;;;5107518;28;20911;-76
2021/07/02 01:09:26;;;;;;;25.15;13.77;;;;;8.60;101532.00;;;;5107868;28;20483;-76
2021/07/02 01:11:53;;;;;;;31.92;16.75;;;;;8.60;101525.00;;;;5107858;28;20402;-77
2021/07/02 01:14:20;;;;;;;31.02;15.98;;;;;8.50;101534.00;;;;5107896;28;20074;-77
2021/07/02 01:16:47;;;;;;;40.25;17.90;;;;;8.50;101533.00;;;;5108085;28;20107;-77
2021/07/02 01:19:15;;;;;;;33.78;20.55;;;;;8.40;101531.00;;;;5108133;28;20038;-77
2021/07/02 01:21:42;;;;;;;35.10;19.02;;;;;8.30;101517.00;;;;5108223;28;20473;-76
2021/07/02 01:24:08;;;;;;;37.35;18.08;;;;;8.60;101513.00;;;;5107865;28;20070;-77
2021/07/02 01:26:35;;;;;;;30.00;18.08;;;;;8.50;101548.00;;;;5107865;28;20058;-76
2021/07/02 01:29:02;;;;;;;33.70;17.38;;;;;8.40;101525.00;;;;5107300;28;20059;-76
2021/07/02 01:31:29;;;;;;;27.75;16.02;;;;;8.30;101527.00;;;;5107791;28;20084;-75
2021/07/02 01:33:56;;;;;;;31.10;15.88;;;;;8.20;101527.00;;;;5108126;28;20088;-77
2021/07/02 01:36:24;;;;;;;23.73;15.27;;;;;8.20;101549.00;;;;5107858;28;20466;-76
2021/07/02 01:38:51;;;;;;;32.00;15.20;;;;;8.20;101544.00;;;;5107564;28;20027;-77
2021/07/02 01:41:18;;;;;;;30.02;15.25;;;;;8.10;101523.00;;;;5107592;28;20028;-77
2021/07/02 01:43:45;;;;;;;27.27;15.50;;;;;8.10;101532.00;;;;5108133;28;20028;-76
2021/07/02 01:46:11;;;;;;;20.42;12.45;;;;;8.10;101550.00;;;;5106949;28;20062;-76
2021/07/02 01:48:38;;;;;;;27.05;13.32;;;;;8.10;101544.00;;;;5107392;28;20026;-77
2021/07/02 01:51:05;;;;;;;26.48;12.23;;;;;8.10;101531.00;;;;5106928;28;20028;-77
2021/07/02 01:53:31;;;;;;;23.58;10.57;;;;;8.10;101529.00;;;;5107313;28;20080;-78
2021/07/02 01:55:58;;;;;;;17.23;11.25;;;;;8.00;101534.00;;;;5107251;28;20079;-78
2021/07/02 01:58:25;;;;;;;18.35;11.85;;;;;7.90;101544.00;;;;5107669;28;20603;-77
2021/07/02 02:00:51;;;;;;;15.88;10.90;;;;;7.90;101529.00;;;;5107424;28;20427;-76
2021/07/02 02:03:18;;;;;;;18.92;10.95;;;;;7.90;101535.00;;;;5106994;28;20032;-76
2021/07/02 02:05:44;;;;;;;27.45;12.65;;;;;8.00;101539.00;;;;5107654;28;20040;-77
2021/07/02 02:08:11;;;;;;;20.08;12.05;;;;;7.80;101540.00;;;;5107432;28;20110;-77
2021/07/02 02:10:38;;;;;;;35.67;17.58;;;;;7.80;101547.00;;;;5106912;28;20046;-77
2021/07/02 02:13:04;;;;;;;21.10;12.02;;;;;7.90;101513.00;;;;5107261;28;20080;-77
2021/07/02 02:15:31;;;;;;;30.77;14.35;;;;;7.90;101518.00;;;;5107166;28;20027;-77
2021/07/02 02:17:57;;;;;;;23.05;13.20;;;;;7.90;101509.00;;;;5107051;28;20040;-77
2021/07/02 02:20:24;;;;;;;24.23;12.00;;;;;7.90;101522.00;;;;5107287;28;20368;-77
2021/07/02 02:22:51;;;;;;;23.08;11.88;;;;;7.90;101508.00;;;;5107024;28;20055;-77
2021/07/02 02:25:17;;;;;;;18.70;11.13;;;;;7.90;101492.00;;;;5106672;28;20078;-77
2021/07/02 02:27:47;;;;;;;24.80;10.38;;;;;7.80;101494.00;;;;5106824;28;20050;-77
2021/07/02 02:30:15;;;;;;;26.92;9.63;;;;;7.70;101503.00;;;;5106864;28;20085;-77
2021/07/02 02:32:42;;;;;;;16.45;9.38;;;;;7.70;101499.00;;;;5107732;28;20435;-77
2021/07/02 02:35:10;;;;;;;19.20;9.32;;;;;7.70;101502.00;;;;5107274;28;20083;-77
2021/07/02 02:37:37;;;;;;;22.75;10.45;;;;;7.70;101506.00;;;;5106457;28;20035;-76
2021/07/02 02:40:05;;;;;;;27.65;10.40;;;;;7.70;101519.00;;;;5106885;28;20023;-76
2021/07/02 02:42:32;;;;;;;17.38;9.15;;;;;7.80;101515.00;;;;5107169;28;20501;-77
2021/07/02 02:44:58;;;;;;;24.00;10.00;;;;;7.70;101498.00;;;;5106873;28;20039;-77
2021/07/02 02:47:25;;;;;;;21.35;8.60;;;;;7.70;101486.00;;;;5107311;28;20024;-77
2021/07/02 02:49:52;;;;;;;29.63;11.15;;;;;7.80;101489.00;;;;5106790;28;20463;-76
2021/07/02 02:52:18;;;;;;;18.58;9.90;;;;;7.80;101477.00;;;;5106739;28;20034;-76
2021/07/02 02:54:45;;;;;;;13.23;9.13;;;;;7.80;101498.00;;;;5088339;28;20077;-77
2021/07/02 02:57:11;;;;;;;22.08;10.20;;;;;7.70;101503.00;;;;5107113;28;20023;-76
2021/07/02 02:59:39;;;;;;;18.45;9.25;;;;;7.70;101498.00;;;;5111356;28;20055;-77
2021/07/02 03:02:07;;;;;;;18.02;9.70;;;;;7.90;101511.00;;;;5110275;28;20102;-77
2021/07/02 03:04:35;;;;;;;21.63;9.02;;;;;7.80;101503.00;;;;5110536;28;20072;-77
2021/07/02 03:07:02;;;;;;;17.15;9.43;;;;;7.70;101522.00;;;;5110473;28;20042;-76
2021/07/02 03:09:29;;;;;;;17.90;9.13;;;;;7.60;101507.00;;;;5091970;28;20055;-77
2021/07/02 03:11:55;;;;;;;30.45;9.45;;;;;7.70;101520.00;;;;5110598;28;20650;-77
2021/07/02 03:14:23;;;;;;;22.23;12.73;;;;;7.70;101528.00;;;;5110331;28;20403;-77
2021/07/02 03:16:50;;;;;;;25.73;12.70;;;;;7.60;101508.00;;;;5109948;28;20113;-77
2021/07/02 03:19:17;;;;;;;27.30;11.32;;;;;7.50;101530.00;;;;5110072;28;20808;-77
2021/07/02 03:21:43;;;;;;;20.33;12.98;;;;;7.50;101483.00;;;;5109878;28;20486;-77
2021/07/02 03:24:11;;;;;;;23.83;10.23;;;;;7.50;101518.00;;;;5110259;28;20495;-77
2021/07/02 03:26:38;;;;;;;21.65;11.45;;;;;7.60;101494.00;;;;5122045;28;20032;-76
2021/07/02 03:29:05;;;;;;;26.73;13.70;;;;;7.60;101510.00;;;;5128725;28;20024;-76
2021/07/02 03:31:32;;;;;;;21.52;12.75;;;;;7.50;101503.00;;;;5123953;28;20034;-77
2021/07/02 03:33:59;;;;;;;22.10;12.45;;;;;7.50;101509.00;;;;5091912;28;20483;-76
2021/07/02 03:36:26;;;;;;;21.48;11.43;;;;;7.40;101489.00;;;;5109958;28;20532;-76
2021/07/02 03:38:52;;;;;;;20.00;11.50;;;;;7.40;101485.00;;;;5110378;28;20035;-76
2021/07/02 03:41:19;;;;;;;22.90;10.63;;;;;7.40;101492.00;;;;5109829;28;20073;-77
2021/07/02 03:43:45;;;;;;;20.05;9.77;;;;;7.40;101487.00;;;;5109950;28;20031;-76
2021/07/02 03:46:12;;;;;;;24.55;9.43;;;;;7.40;101503.00;;;;5091104;28;20517;-76
2021/07/02 03:48:38;;;;;;;21.33;9.07;;;;;7.30;101486.00;;;;5109838;28;20057;-77
2021/07/02 03:51:05;;;;;;;16.13;9.13;;;;;7.30;101474.00;;;;5110039;28;20538;-76
2021/07/02 03:53:32;;;;;;;25.50;11.38;;;;;7.20;101500.00;;;;5110307;28;20055;-77
2021/07/02 03:55:59;;;;;;;14.40;8.85;;;;;7.30;101467.00;;;;5109587;28;20034;-76
2021/07/02 03:58:25;;;;;;;17.90;9.35;;;;;7.20;101493.00;;;;5109243;28;20035;-76
2021/07/02 04:00:52;;;;;;;18.33;10.10;;;;;7.10;101496.00;;;;5108825;28;20410;-76
2021/07/02 04:03:18;;;;;;;19.15;9.20;;;;;7.10;101461.00;;;;5109481;28;20103;-76
2021/07/02 04:05:45;;;;;;;15.50;9.00;;;;;7.10;101498.00;;;;5109542;28;20734;-76
2021/07/02 04:08:12;;;;;;;18.33;9.65;;;;;7.20;101487.00;;;;5109239;28;20388;-76
2021/07/02 04:10:39;;;;;;;12.65;8.43;;;;;7.10;101479.00;;;;5108592;28;20493;-77
2021/07/02 04:13:07;;;;;;;16.88;10.15;;;;;7.20;101473.00;;;;5109614;28;20031;-77
2021/07/02 04:15:34;;;;;;;26.65;9.25;;;;;7.30;101487.00;;;;5108793;28;20024;-76
2021/07/02 04:18:01;;;;;;;12.05;8.88;;;;;7.40;101463.00;;;;5109540;28;20479;-77
2021/07/02 04:20:27;;;;;;;19.00;9.10;;;;;7.40;101492.00;;;;5109042;28;20039;-77
2021/07/02 04:22:54;;;;;;;20.23;7.80;;;;;7.40;101474.00;;;;5109157;28;20046;-77
2021/07/02 04:25:21;;;;;;;15.15;7.78;;;;;7.40;101484.00;;;;5109211;28;20403;-76
2021/07/02 04:27:47;;;;;;;13.27;8.43;;;;;7.50;101488.00;;;;5109259;28;20035;-77
2021/07/02 04:30:14;;;;;;;10.15;6.28;;;;;7.50;101471.00;;;;5108805;28;20035;-77
2021/07/02 04:32:41;;;;;;;11.48;6.68;;;;;7.60;101471.00;;;;5109414;28;20027;-78
2021/07/02 04:35:09;;;;;;;10.52;6.47;;;;;7.50;101485.00;;;;5108879;28;20027;-76
2021/07/02 04:37:37;;;;;;;10.73;5.45;;;;;7.70;101466.00;;;;5108947;28;20498;-76
2021/07/02 04:40:05;;;;;;;18.88;6.68;;;;;7.70;101451.00;;;;5108619;28;20388;-77
2021/07/02 04:42:32;;;;;;;9.52;5.03;;;;;7.70;101470.00;;;;5108983;28;20031;-77
2021/07/02 04:44:58;;;;;;;11.18;4.13;;;;;7.60;101460.00;;;;5108329;28;20028;-77
2021/07/02 04:47:25;;;;;;;11.38;4.63;;;;;7.50;101448.00;;;;5108817;28;20055;-77
2021/07/02 04:49:52;;;;;;;10.45;4.50;;;;;7.60;101451.00;;;;5107880;28;20106;-77
2021/07/02 04:52:18;;;;;;;7.53;4.07;;;;;7.60;101461.00;;;;5108353;28;20449;-77
2021/07/02 04:54:45;;;;;;;11.60;3.35;;;;;7.60;101416.00;;;;5108217;28;20403;-78
2021/07/02 04:57:12;;;;;;;5.57;3.47;;;;;7.50;101429.00;;;;5108810;28;20070;-77
2021/07/02 04:59:39;;;;;;;6.47;3.00;;;;;7.50;101453.00;;;;5107952;28;20496;-77
2021/07/02 05:02:08;;;;;;;6.13;3.40;;;;;7.60;101435.00;;;;5107968;28;20027;-76
2021/07/02 05:04:35;;;;;;;6.88;3.28;;;;;7.60;101420.00;;;;5108490;28;20429;-77
2021/07/02 05:07:03;;;;;;;5.25;3.58;;;;;7.70;101434.00;;;;5108085;28;20042;-77
2021/07/02 05:09:30;;;;;;;9.40;3.30;;;;;7.70;101452.00;;;;5090793;28;20383;-77
2021/07/02 05:11:56;;;;;;;18.10;3.40;;;;;7.50;101437.00;;;;5107601;28;20020;-77
2021/07/02 05:14:23;;;;;;;7.22;2.30;;;;;7.40;101435.00;;;;5108333;28;20573;-77
2021/07/02 05:16:49;;;;;;;7.85;2.30;;;;;7.40;101436.00;;;;5107901;28;20027;-76
2021/07/02 05:19:16;;;;;;;4.72;2.15;;;;;7.40;101417.00;;;;5089418;28;20064;-78
2021/07/02 05:21:43;;;;;;;2.72;2.10;;;;;7.40;101435.00;;;;5108089;28;20027;-77
2021/07/02 05:24:09;;;;;;;8.68;2.20;;;;;7.30;101413.00;;;;5107998;28;20028;-77
2021/07/02 05:26:36;;;;;;;6.53;2.17;;;;;7.40;101411.00;;;;5107833;28;20115;-78
2021/07/02 05:29:03;;;;;;;2.85;1.95;;;;;7.40;101413.00;;;;5107894;28;20031;-77
2021/07/02 05:31:29;;;;;;;11.98;1.98;;;;;7.20;101407.00;;;;5108918;28;20727;-77
2021/07/02 05:33:56;;;;;;;7.75;2.53;;;;;7.30;101416.00;;;;5108386;28;20024;-77
2021/07/02 05:36:23;;;;;;;9.07;1.92;;;;;7.30;101424.00;;;;5107816;28;20035;-77
2021/07/02 05:38:49;;;;;;;6.15;1.90;;;;;7.20;101417.00;;;;5107273;28;20542;-77
2021/07/02 05:41:16;;;;;;;3.92;2.00;;;;;7.20;101392.00;;;;5107533;28;20030;-75
2021/07/02 05:43:42;;;;;;;2.65;1.67;;;;;7.40;101420.00;;;;5107959;28;20026;-76
2021/07/02 05:46:09;;;;;;;3.90;1.73;;;;;7.30;101416.00;;;;5089232;28;20043;-77
2021/07/02 05:48:36;;;;;;;4.10;1.65;;;;;7.30;101426.00;;;;5107326;28;20030;-77
2021/07/02 05:51:02;;;;;;;15.15;2.15;;;;;7.10;101394.00;;;;5107214;28;20402;-77
2021/07/02 05:53:29;;;;;;;7.53;2.22;;;;;7.20;101388.00;;;;5107344;28;20114;-77
2021/07/02 05:55:55;;;;;;;5.13;2.08;;;;;7.10;101411.00;;;;5107755;28;20028;-78
2021/07/02 05:58:22;;;;;;;9.30;2.58;;;;;7.00;101387.00;;;;5108091;28;21276;-78
2021/07/02 06:00:49;;;;;;;10.20;2.10;;;;;7.00;101404.00;;;;5107387;28;20047;-78
2021/07/02 06:03:15;;;;;;;4.88;2.40;;;;;7.00;101393.00;;;;5107384;28;20026;-77
2021/07/02 06:05:42;;;;;;;4.50;2.50;;;;;6.80;101404.00;;;;5107529;28;20024;-77
2021/07/02 06:08:09;;;;;;;6.03;2.53;;;;;6.80;101379.00;;;;5107295;28;20031;-77
2021/07/02 06:10:35;;;;;;;5.80;2.50;;;;;6.80;101395.00;;;;5107195;28;20486;-77
2021/07/02 06:13:02;;;;;;;7.38;2.50;;;;;6.70;101395.00;;;;5107221;28;20027;-77
2021/07/02 06:15:29;;;;;;;11.10;2.30;;;;;6.70;101398.00;;;;5107249;28;20030;-77
2021/07/02 06:17:57;;;;;;;3.80;2.25;;;;;6.70;101395.00;;;;5107023;28;20039;-77
2021/07/02 06:20:25;;;;;;;5.72;2.50;;;;;6.70;101411.00;;;;5106845;28;20205;-78
2021/07/02 06:22:52;;;;;;;8.48;2.72;;;;;6.70;101394.00;;;;5107217;28;20375;-78
2021/07/02 06:25:18;;;;;;;4.63;2.40;;;;;6.70;101415.00;;;;5107732;28;20058;-77
2021/07/02 06:27:45;;;;;;;5.20;2.40;;;;;6.60;101422.00;;;;5107058;28;20144;-78
2021/07/02 06:30:12;;;;;;;10.75;2.50;;;;;6.60;101392.00;;;;5105696;28;20035;-78
2021/07/02 06:32:39;;;;;;;7.38;2.33;;;;;6.70;101397.00;;;;5106352;28;20398;-78
2021/07/02 06:35:07;;;;;;;7.50;2.58;;;;;6.60;101434.00;;;;5109376;28;20028;-77
2021/07/02 06:37:34;;;;;;;5.10;1.95;;;;;6.60;101405.00;;;;5111103;28;20486;-78
2021/07/02 06:40:00;;;;;;;4.65;2.53;;;;;6.70;101413.00;;;;5111135;28;20023;-77
2021/07/02 06:42:27;;;;;;;4.78;2.10;;;;;6.60;101414.00;;;;5092479;28;20139;-76
2021/07/02 06:44:53;;;;;;;10.30;2.40;;;;;6.60;101437.00;;;;5111213;28;20034;-77
2021/07/02 06:47:20;;;;;;;4.00;2.00;;;;;6.50;101410.00;;;;5111457;28;20089;-77
2021/07/02 06:49:47;;;;;;;9.07;2.40;;;;;6.60;101441.00;;;;5110871;28;20032;-78
2021/07/02 06:52:13;;;;;;;4.82;1.77;;;;;6.50;101420.00;;;;5111007;28;20031;-78
2021/07/02 06:54:40;;;;;;;5.40;2.00;;;;;6.40;101435.00;;;;5111000;28;20647;-78
2021/07/02 06:57:09;;;;;;;7.95;2.03;;;;;6.50;101440.00;;;;5110617;28;20126;-78
2021/07/02 06:59:40;;;;;;;8.23;2.17;;;;;6.50;101448.00;;;;5110691;28;20044;-78
2021/07/02 07:02:11;;;;;;;2.05;1.85;;;;;6.50;101430.00;;;;5110738;28;20031;-77
2021/07/02 07:04:38;;;;;;;7.20;2.40;;;;;6.60;101434.00;;;;5110919;28;20061;-77
2021/07/02 07:07:07;;;;;;;4.85;2.13;;;;;6.50;101439.00;;;;5110635;28;20501;-77
2021/07/02 07:09:34;;;;;;;3.35;1.85;;;;;6.30;101426.00;;;;5110504;28;20027;-77
2021/07/02 07:12:01;;;;;;;4.32;1.85;;;;;6.40;101443.00;;;;5110474;28;20038;-77
2021/07/02 07:14:28;;;;;;;19.27;8.23;;;;;6.40;101447.00;;;;5111004;28;20023;-76
2021/07/02 07:16:55;;;;;;;23.63;10.52;;;;;6.30;101458.00;;;;5110427;28;20035;-77
2021/07/02 07:19:28;;;;;;;31.38;14.07;;;;;6.30;101452.00;;;;5110529;28;20031;-77
2021/07/02 07:21:55;;;;;;;32.00;14.93;;;;;6.50;101447.00;;;;5110407;28;20027;-77
2021/07/02 07:24:21;;;;;;;24.45;11.18;;;;;6.50;101441.00;;;;5110171;28;20391;-77
2021/07/02 07:26:48;;;;;;;19.98;10.20;;;;;6.40;101443.00;;;;5110843;28;20541;-77
2021/07/02 07:29:15;;;;;;;28.08;11.77;;;;;6.40;101434.00;;;;5110694;28;20036;-78
2021/07/02 07:31:41;;;;;;;22.23;13.15;;;;;6.40;101454.00;;;;5110227;28;20023;-78
2021/07/02 07:34:08;;;;;;;19.40;8.80;;;;;6.40;101419.00;;;;5109898;28;20024;-77
2021/07/02 07:36:36;;;;;;;16.60;6.63;;;;;6.40;101443.00;;;;5110136;28;20113;-78
2021/07/02 07:39:04;;;;;;;23.90;12.80;;;;;6.20;101448.00;;;;5109541;28;20054;-78
2021/07/02 07:41:31;;;;;;;26.73;12.18;;;;;6.30;101429.00;;;;5110382;28;20062;-80
2021/07/02 07:43:58;;;;;;;27.40;16.38;;;;;6.20;101422.00;;;;5109143;28;20027;-77
2021/07/02 07:46:27;;;;;;;25.38;14.02;;;;;6.30;101441.00;;;;5109417;28;20470;-78
2021/07/02 07:48:54;;;;;;;22.95;13.85;;;;;6.20;101421.00;;;;5109813;28;20093;-78
2021/07/02 07:53:53;;;;;;;26.40;13.98;;;;;6.10;101433.00;;;;5109611;28;20032;-78
2021/07/02 07:56:20;;;;;;;25.02;11.60;;;;;6.10;101446.00;;;;5109462;28;20125;-78
2021/07/02 07:58:46;;;;;;;16.13;9.73;;;;;6.10;101441.00;;;;5109454;28;20042;-77
2021/07/02 08:01:13;;;;;;;17.95;11.02;;;;;6.00;101410.00;;;;5109186;28;20047;-77
2021/07/02 08:03:39;;;;;;;15.35;8.88;;;;;6.00;101425.00;;;;5109864;28;20028;-77
2021/07/02 08:06:06;;;;;;;15.18;7.57;;;;;6.00;101442.00;;;;5110158;28;20530;-77
2021/07/02 08:08:32;;;;;;;15.98;8.02;;;;;5.90;101407.00;;;;5109691;28;20988;-78
2021/07/02 08:10:59;;;;;;;12.90;8.38;;;;;6.00;101437.00;;;;5109377;28;20031;-77
2021/07/02 08:13:28;;;;;;;12.43;7.32;;;;;6.00;101427.00;;;;5108949;28;20068;-78
2021/07/02 08:15:55;;;;;;;12.30;7.32;;;;;5.90;101422.00;;;;5109442;28;20092;-79
2021/07/02 08:18:22;;;;;;;8.82;5.50;;;;;5.90;101404.00;;;;5109519;28;20457;-77
2021/07/02 08:20:48;;;;;;;9.80;5.90;;;;;5.90;101427.00;;;;5090817;28;20038;-78
2021/07/02 08:23:15;;;;;;;7.82;5.57;;;;;5.80;101424.00;;;;5109941;28;20439;-77
2021/07/02 08:25:42;;;;;;;10.20;5.00;;;;;5.80;101408.00;;;;5109111;28;20055;-78
2021/07/02 08:30:53;;;;;;;7.75;4.80;;;;;5.90;101447.00;;;;5108881;28;20410;-78
2021/07/02 08:33:21;;;;;;;8.43;5.03;;;;;5.90;101412.00;;;;5108967;28;20019;-78
2021/07/02 08:35:48;;;;;;;6.78;4.13;;;;;5.90;101416.00;;;;5108834;28;20054;-78
2021/07/02 08:38:17;;;;;;;17.83;9.30;;;;;5.90;101406.00;;;;5108849;28;20032;-79
2021/07/02 08:40:44;;;;;;;10.00;7.20;;;;;5.90;101419.00;;;;5108722;28;20035;-78
2021/07/02 08:43:11;;;;;;;10.30;4.65;;;;;6.00;101436.00;;;;5108397;28;20380;-78
2021/07/02 08:45:38;;;;;;;9.60;3.45;;;;;5.90;101446.00;;;;5109066;28;20028;-79
2021/07/02 08:48:09;;;;;;;6.60;3.25;;;;;6.00;101428.00;;;;5108250;28;20059;-78
2021/07/02 08:50:37;;;;;;;10.82;2.88;;;;;5.90;101429.00;;;;5108440;28;20023;-79
2021/07/02 08:53:05;;;;;;;7.43;3.40;;;;;5.80;101444.00;;;;5108584;28;20039;-78
2021/07/02 08:55:33;;;;;;;95.88;4.53;;;;;5.60;101418.00;;;;5107807;28;20027;-78
2021/07/02 08:58:00;;;;;;;5.40;2.65;;;;;5.70;101443.00;;;;5108355;28;20372;-79
2021/07/02 09:00:27;;;;;;;2.75;2.42;;;;;5.70;101446.00;;;;5089541;28;20058;-79
2021/07/02 09:02:53;;;;;;;5.40;3.25;;;;;5.80;101427.00;;;;5108179;28;20482;-79
2021/07/02 09:05:33;;;;;;;4.65;3.33;;;;;5.80;101442.00;;;;5108520;28;20093;-78
2021/07/02 09:08:01;;;;;;;7.80;3.60;;;;;5.70;101412.00;;;;5108473;28;20067;-78
2021/07/02 09:10:35;;;;;;;7.88;3.88;;;;;5.80;101416.00;;;;5108512;28;20055;-80
2021/07/02 09:13:03;;;;;;;6.00;2.95;;;;;5.70;101421.00;;;;5108284;28;20036;-79
2021/07/02 09:15:30;;;;;;;8.15;3.13;;;;;5.80;101420.00;;;;5108601;28;20031;-78
2021/07/02 09:17:59;;;;;;;5.55;2.80;;;;;5.70;101407.00;;;;5108456;28;20118;-78
2021/07/02 09:20:33;;;;;;;49.83;4.43;;;;;5.70;101439.00;;;;5107963;28;20498;-78
2021/07/02 09:23:01;;;;;;;6.22;3.17;;;;;5.60;101417.00;;;;5107754;28;20027;-79
2021/07/02 09:25:36;;;;;;;6.60;2.97;;;;;5.50;101442.00;;;;5108022;28;20031;-78
2021/07/02 09:28:04;;;;;;;8.15;3.10;;;;;5.50;101422.00;;;;5107735;28;20035;-79
2021/07/02 09:30:33;;;;;;;5.57;3.50;;;;;5.50;101439.00;;;;5108137;28;20043;-79
2021/07/02 09:33:06;;;;;;;3.30;2.92;;;;;5.50;101437.00;;;;5107987;28;20043;-78
2021/07/02 09:35:45;;;;;;;5.60;3.20;;;;;5.50;101453.00;;;;5108065;28;20040;-79
2021/07/02 09:38:14;;;;;;;4.10;2.67;;;;;5.60;101454.00;;;;5107640;28;20432;-79
2021/07/02 09:40:41;;;;;;;7.13;3.38;;;;;5.60;101453.00;;;;5107378;28;20024;-79
2021/07/02 09:43:10;;;;;;;7.30;3.47;;;;;5.60;101452.00;;;;5089107;28;20070;-79
2021/07/02 09:45:52;;;;;;;7.78;3.00;;;;;5.50;101426.00;;;;5107825;28;20032;-78
2021/07/02 09:48:20;;;;;;;5.93;2.50;;;;;5.40;101446.00;;;;5107482;28;20027;-78
2021/07/02 09:50:54;;;;;;;11.75;2.90;;;;;5.30;101423.00;;;;5106919;28;20035;-78
2021/07/02 09:53:29;;;;;;;5.68;2.75;;;;;5.30;101436.00;;;;5106773;28;20035;-81
2021/07/02 09:55:58;;;;;;;13.30;3.53;;;;;5.30;101436.00;;;;5107520;28;20032;-79
2021/07/02 09:58:29;;;;;;;9.30;4.07;;;;;5.50;101439.00;;;;5107257;28;20038;-79
2021/07/02 10:00:59;;;;;;;32.28;10.15;;;;;5.50;101442.00;;;;5088466;28;20048;-80
2021/07/02 10:03:38;;;;;;;44.08;13.23;;;;;5.40;101425.00;;;;5105882;28;20028;-79
2021/07/02 10:06:14;;;;;;;53.25;15.20;;;;;5.40;101438.00;;;;5107385;28;20077;-79
2021/07/02 10:08:41;;;;;;;43.95;14.40;;;;;5.30;101416.00;;;;5106175;28;20038;-79
2021/07/02 10:11:11;;;;;;;44.85;14.60;;;;;5.30;101420.00;;;;5107169;28;20028;-79
2021/07/02 10:13:40;;;;;;;40.35;14.35;;;;;5.40;101440.00;;;;5105305;28;20115;-80
2021/07/02 10:16:09;;;;;;;35.05;14.63;;;;;5.40;101413.00;;;;5106567;28;20387;-79
2021/07/02 10:18:59;;;;;;;45.50;16.48;;;;;5.40;101426.00;;;;5107278;28;20027;-79
2021/07/02 10:21:26;;;;;;;39.90;14.50;;;;;5.40;101426.00;;;;5106575;28;20032;-79
2021/07/02 10:24:00;;;;;;;37.70;14.13;;;;;5.50;101462.00;;;;5107166;28;20031;-79
2021/07/02 10:26:28;;;;;;;26.02;10.73;;;;;5.50;101452.00;;;;5106718;28;20960;-79
2021/07/02 10:28:57;;;;;;;28.17;12.45;;;;;5.50;101450.00;;;;5107055;28;20483;-80
2021/07/02 10:31:23;;;;;;;33.05;13.80;;;;;5.60;101452.00;;;;5107272;28;20079;-78
2021/07/02 10:33:54;;;;;;;33.55;11.98;;;;;5.70;101428.00;;;;5106764;28;20031;-78
2021/07/02 10:36:23;;;;;;;23.80;11.38;;;;;5.70;101441.00;;;;5107157;28;20039;-79
2021/07/02 10:38:52;;;;;;;25.30;9.63;;;;;5.70;101406.00;;;;5107671;28;20122;-78
2021/07/02 10:41:30;;;;;;;22.92;10.73;;;;;5.70;101407.00;;;;5106920;28;20070;-80
2021/07/02 10:44:03;;;;;;;19.85;10.25;;;;;5.70;101434.00;;;;5106957;28;20052;-80
2021/07/02 10:46:31;;;;;;;14.02;8.57;;;;;5.80;101407.00;;;;5106579;28;20501;-80
2021/07/02 10:49:12;;;;;;;19.58;10.13;;;;;6.00;101406.00;;;;5106480;28;20062;-80
2021/07/02 10:52:25;;;;;;;32.38;8.70;;;;;6.20;101431.00;;;;5107153;28;20111;-79
2021/07/02 10:54:56;;;;;;;20.13;7.22;;;;;6.30;101427.00;;;;5080763;28;20467;-79
2021/07/02 10:57:25;;;;;;;36.57;7.30;;;;;6.60;101384.00;;;;5107435;28;20076;-80
2021/07/02 10:59:52;;;;;;;22.02;6.47;;;;;7.40;101379.00;;;;5106257;28;20055;-78
2021/07/02 11:02:20;;;;;;;18.40;6.30;;;;;8.40;101372.00;;;;5107184;28;20754;-79
2021/07/02 11:04:56;;;;;;;19.13;6.40;;;;;7.60;101401.00;;;;5106984;28;20030;-79
2021/07/02 11:07:25;;;;;;;20.77;6.38;;;;;7.80;101415.00;;;;5088579;28;20041;-80
2021/07/02 11:10:05;;;;;;;15.80;6.25;;;;;7.70;101422.00;;;;5106736;28;20035;-80
2021/07/02 11:12:33;;;;;;;19.70;6.13;;;;;7.80;101433.00;;;;5106482;28;20027;-80
2021/07/02 11:15:03;;;;;;;21.60;5.70;;;;;9.50;101321.00;;;;5106401;28;20065;-79
2021/07/02 11:17:31;;;;;;;19.95;6.32;;;;;8.70;101422.00;;;;5106591;28;20054;-80
2021/07/02 11:20:10;;;;;;;10.38;4.07;;;;;8.20;101410.00;;;;5108822;28;20028;-79
2021/07/02 11:22:37;;;;;;;25.92;5.57;;;;;8.30;101412.00;;;;5110069;28;20035;-79
2021/07/02 11:25:26;;;;;;;9.95;4.50;;;;;9.80;101356.00;;;;5110242;28;20034;-81
2021/07/02 11:28:03;;;;;;;7.45;4.28;;;;;10.10;101373.00;;;;5110137;28;20027;-80
2021/07/02 11:30:41;;;;;;;9.50;3.50;;;;;11.40;101319.00;;;;5109876;28;20111;-78
2021/07/02 11:33:11;;;;;;;4.15;2.85;;;;;11.90;101334.00;;;;5110220;28;20038;-76
2021/07/02 11:36:05;;;;;;;8.82;3.65;;;;;14.40;101282.00;;;;5110001;28;20110;-77
2021/07/02 11:38:33;;;;;;;7.97;2.92;;;;;14.30;101252.00;;;;5091962;28;20059;-78
2021/07/02 11:41:05;;;;;;;19.83;3.78;;;;;14.70;101254.00;;;;5109613;28;20032;-80
2021/07/02 11:43:40;;;;;;;12.35;2.92;;;;;15.40;101182.00;;;;5109903;28;20067;-79
2021/07/02 11:46:18;;;;;;;9.70;3.03;;;;;17.00;101206.00;;;;5110296;28;20032;-77
2021/07/02 11:48:57;;;;;;;17.33;15.55;;;;;17.80;101228.00;;;;5110372;28;20104;-77
2021/07/02 11:51:25;;;;;;;8.20;3.47;;;;;17.80;101205.00;;;;5109726;28;20074;-77
2021/07/02 11:53:55;;;;;;;7.93;3.05;;;;;18.40;101190.00;;;;5109811;28;20063;-77
2021/07/02 11:56:24;;;;;;;12.45;2.60;;;;;19.10;101225.00;;;;5109916;28;20031;-77
2021/07/02 11:59:00;;;;;;;19.05;6.30;;;;;18.90;101270.00;;;;5109625;28;20059;-77
2021/07/02 12:01:39;;;;;;;14.55;7.55;;;;;17.90;101251.00;;;;5109220;28;20106;-77
2021/07/02 12:04:15;;;;;;;11.75;7.05;;;;;17.40;101349.00;;;;5109416;28;20024;-77
2021/07/02 12:06:46;;;;;;;18.83;7.18;;;;;17.90;101282.00;;;;5109097;28;20080;-77
2021/07/02 12:09:17;;;;;;;14.40;6.05;;;;;17.80;101272.00;;;;5109612;28;20114;-76
2021/07/02 12:11:50;;;;;;;40.00;13.63;;;;;18.00;101305.00;;;;5109038;28;20035;-78
2021/07/02 12:14:32;;;;;;;303.83;138.73;;;;;16.40;101306.00;;;;5109881;28;20347;-76
2021/07/02 12:17:00;;;;;;;465.60;215.57;;;;;17.70;101403.00;;;;5109395;28;20466;-76